| time (UTC) | temp F | wind direction | speed MPH | gust MPH | rain 1hr in | rain 24hr in | rain mn in | humidity % | barometer mb |
| 20260904185509 | 56 | 331 | 3.0 | 11.0 | 0.02 | 0.15 | 0.13 | 87 | 1005.9 |
| 20260904185008 | 56 | 28 | 4.0 | 14.0 | 0.02 | 0.14 | 0.13 | 87 | 1006.1 |
| 20260904184509 | 56 | 355 | 5.0 | 14.0 | 0.05 | 0.14 | 0.13 | 87 | 1006.2 |
| 20260904184009 | 56 | 30 | 6.0 | 17.0 | 0.06 | 0.14 | 0.13 | 87 | 1006.2 |
| 20260904183506 | 56 | 334 | 6.0 | 14.0 | 0.06 | 0.14 | 0.13 | 87 | 1006.0 |
| 20260904183006 | 56 | 336 | 6.0 | 17.0 | 0.06 | 0.14 | 0.13 | 87 | 1006.0 |
| 20260904182505 | 56 | 329 | 6.0 | 17.0 | 0.06 | 0.14 | 0.13 | 86 | 1006.1 |
| 20260904182006 | 56 | 338 | 7.0 | 16.0 | 0.06 | 0.14 | 0.13 | 86 | 1006.1 |
| 20260904181505 | 56 | 5 | 4.0 | 11.0 | 0.06 | 0.14 | 0.13 | 86 | 1006.2 |
| 20260904180601 | 57 | 348 | 5.0 | 21.0 | 0.06 | 0.13 | 0.12 | 85 | 1006.2 |
| 20260904180059 | 57 | 307 | 9.0 | 21.0 | 0.06 | 0.13 | 0.12 | 85 | 1006.5 |
| 20260904175558 | 57 | 321 | 7.0 | 22.0 | 0.06 | 0.13 | 0.12 | 85 | 1006.4 |
| 20260904175058 | 57 | 5 | 8.0 | 22.0 | 0.05 | 0.13 | 0.11 | 84 | 1006.7 |
| 20260904174602 | 57 | 31 | 11.0 | 19.0 | 0.05 | 0.13 | 0.11 | 84 | 1006.7 |
| 20260904174055 | 57 | 318 | 9.0 | 19.0 | 0.01 | 0.09 | 0.07 | 83 | 1006.8 |
| 20260904173555 | 57 | 328 | 9.0 | 17.0 | 0.01 | 0.08 | 0.06 | 84 | 1006.4 |
| 20260904173055 | 57 | 345 | 6.0 | 13.0 | 0.02 | 0.08 | 0.06 | 84 | 1006.0 |
| 20260904172554 | 57 | 42 | 3.0 | 12.0 | 0.02 | 0.08 | 0.06 | 84 | 1005.7 |
| 20260904172054 | 57 | 339 | 6.0 | 12.0 | 0.02 | 0.08 | 0.06 | 85 | 1005.7 |
| 20260904171616 | 57 | 334 | 7.0 | 16.0 | 0.02 | 0.08 | 0.06 | 85 | 1005.6 |
| 20260904170556 | 57 | 338 | 5.0 | 17.0 | 0.02 | 0.08 | 0.06 | 85 | 1006.2 |
| 20260904170055 | 57 | 292 | 8.0 | 17.0 | 0.02 | 0.08 | 0.06 | 86 | 1006.7 |
| 20260904165554 | 57 | 344 | 8.0 | 16.0 | 0.02 | 0.08 | 0.06 | 86 | 1006.9 |
| 20260904165054 | 57 | 350 | 4.0 | 14.0 | 0.02 | 0.08 | 0.06 | 86 | 1006.9 |
| 20260904164552 | 57 | 5 | 8.0 | 14.0 | 0.02 | 0.08 | 0.06 | 86 | 1007.1 |
| 20260904164051 | 57 | 307 | 6.0 | 15.0 | 0.03 | 0.08 | 0.06 | 86 | 1007.4 |
| 20260904163550 | 57 | 322 | 5.0 | 19.0 | 0.03 | 0.07 | 0.06 | 85 | 1007.6 |
| 20260904163055 | 57 | 327 | 8.0 | 20.0 | 0.03 | 0.07 | 0.06 | 85 | 1007.9 |
| 20260904162550 | 57 | 333 | 9.0 | 20.0 | 0.02 | 0.06 | 0.05 | 85 | 1008.2 |
| 20260904162050 | 57 | 360 | 9.0 | 26.0 | 0.02 | 0.06 | 0.05 | 85 | 1008.1 |
| 20260904161556 | 57 | 338 | 11.0 | 20.0 | 0.02 | 0.06 | 0.04 | 85 | 1007.7 |
| 20260904160545 | 57 | 351 | 11.0 | 21.0 | 0.02 | 0.06 | 0.04 | 86 | 1007.5 |
| 20260904160046 | 57 | 335 | 11.0 | 20.0 | 0.02 | 0.06 | 0.04 | 86 | 1007.5 |
| 20260904155546 | 57 | 16 | 9.0 | 20.0 | 0.03 | 0.06 | 0.04 | 86 | 1007.7 |
| 20260904155044 | 57 | 321 | 8.0 | 17.0 | 0.03 | 0.06 | 0.04 | 85 | 1007.8 |
| 20260904154541 | 57 | 11 | 6.0 | 20.0 | 0.03 | 0.06 | 0.04 | 85 | 1008.2 |
| 20260904154040 | 57 | 39 | 9.0 | 20.0 | 0.03 | 0.06 | 0.04 | 85 | 1008.4 |
| 20260904153539 | 57 | 325 | 8.0 | 15.0 | 0.02 | 0.04 | 0.02 | 84 | 1008.6 |
| 20260904153101 | 57 | 324 | 7.0 | 17.0 | 0.02 | 0.04 | 0.02 | 84 | 1008.7 |
| 20260904152538 | 57 | 14 | 6.0 | 17.0 | 0.02 | 0.04 | 0.02 | 83 | 1008.9 |
| 20260904152036 | 58 | 345 | 7.0 | 17.0 | 0.02 | 0.04 | 0.02 | 83 | 1009.1 |
| 20260904151539 | 58 | 9 | 8.0 | 24.0 | 0.02 | 0.03 | 0.02 | 82 | 1009.1 |
| 20260904150536 | 58 | 325 | 12.0 | 24.0 | 0.02 | 0.03 | 0.02 | 82 | 1009.3 |
| 20260904150037 | 58 | 303 | 10.0 | 30.0 | 0.02 | 0.03 | 0.02 | 81 | 1009.4 |
| 20260904145534 | 58 | 344 | 8.0 | 30.0 | 0.02 | 0.03 | 0.02 | 81 | 1009.2 |
| 20260904145033 | 58 | 43 | 12.0 | 24.0 | 0.01 | 0.02 | 0.01 | 81 | 1009.2 |
| 20260904144532 | 58 | 38 | 12.0 | 24.0 | 0.01 | 0.02 | 0.01 | 81 | 1009.0 |
| 20260904144031 | 58 | 16 | 11.0 | 26.0 | 0.01 | 0.02 | 0.01 | 81 | 1009.0 |
| 20260904143530 | 58 | 14 | 10.0 | 26.0 | 0.01 | 0.02 | 0.01 | 81 | 1009.0 |
| 20260904143030 | 58 | 332 | 10.0 | 22.0 | 0.02 | 0.02 | 0.01 | 80 | 1008.8 |
| 20260904142527 | 58 | 22 | 8.0 | 20.0 | 0.01 | 0.02 | 0.00 | 79 | 1009.1 |
| 20260904142028 | 58 | 46 | 8.0 | 20.0 | 0.01 | 0.02 | 0.00 | 79 | 1009.8 |
| 20260904141526 | 58 | 327 | 8.0 | 20.0 | 0.01 | 0.02 | 0.00 | 79 | 1010.0 |
| 20260904140526 | 58 | 340 | 8.0 | 20.0 | 0.01 | 0.02 | 0.00 | 79 | 1010.0 |
| 20260904140022 | 58 | 355 | 8.0 | 22.0 | 0.01 | 0.02 | 0.02 | 79 | 1010.2 |
| 20260904135522 | 58 | 331 | 10.0 | 22.0 | 0.01 | 0.02 | 0.02 | 79 | 1010.2 |
| 20260904135022 | 58 | 346 | 7.0 | 20.0 | 0.01 | 0.02 | 0.02 | 79 | 1010.2 |
| 20260904134525 | 58 | 348 | 9.0 | 16.0 | 0.01 | 0.02 | 0.02 | 79 | 1010.2 |
| 20260904134021 | 58 | 318 | 6.0 | 22.0 | 0.01 | 0.02 | 0.02 | 79 | 1010.2 |
| 20260904133523 | 58 | 303 | 6.0 | 22.0 | 0.01 | 0.02 | 0.02 | 79 | 1010.2 |
| 20260904133022 | 58 | 321 | 4.0 | 15.0 | 0.01 | 0.02 | 0.02 | 78 | 1010.3 |
| 20260904132526 | 58 | 310 | 9.0 | 21.0 | 0.00 | 0.01 | 0.01 | 78 | 1010.7 |
| 20260904132019 | 58 | 26 | 8.0 | 21.0 | 0.00 | 0.01 | 0.01 | 78 | 1010.9 |
| 20260904131520 | 58 | 335 | 5.0 | 15.0 | 0.00 | 0.01 | 0.01 | 79 | 1010.7 |
| 20260904130524 | 58 | 310 | 6.0 | 21.0 | 0.00 | 0.01 | 0.01 | 79 | 1010.7 |
| 20260904130020 | 58 | 52 | 8.0 | 21.0 | 0.00 | 0.01 | 0.01 | 80 | 1010.9 |
| 20260904125520 | 58 | 5 | 6.0 | 18.0 | 0.00 | 0.01 | 0.01 | 80 | 1011.1 |
| 20260904125022 | 58 | 5 | 6.0 | 15.0 | 0.00 | 0.01 | 0.01 | 80 | 1011.5 |
| 20260904124520 | 58 | 344 | 6.0 | 13.0 | 0.00 | 0.01 | 0.01 | 80 | 1011.5 |
| 20260904124022 | 58 | 13 | 1.0 | 14.0 | 0.00 | 0.01 | 0.01 | 80 | 1011.2 |
| 20260904123522 | 58 | 35 | 2.0 | 14.0 | 0.01 | 0.01 | 0.01 | 80 | 1011.1 |
| 20260904123020 | 58 | 57 | 3.0 | 15.0 | 0.01 | 0.01 | 0.01 | 80 | 1011.1 |
| 20260904122525 | 58 | 5 | 6.0 | 16.0 | 0.01 | 0.01 | 0.01 | 80 | 1011.2 |
| 20260904122021 | 57 | 23 | 4.0 | 11.0 | 0.01 | 0.01 | 0.01 | 80 | 1010.9 |
| 20260904121519 | 57 | 321 | 7.0 | 19.0 | 0.01 | 0.01 | 0.01 | 79 | 1010.9 |
| 20260904120521 | 57 | 327 | 10.0 | 21.0 | 0.01 | 0.01 | 0.01 | 79 | 1011.1 |
| 20260904120027 | 57 | 316 | 7.0 | 21.0 | 0.01 | 0.01 | 0.01 | 79 | 1011.1 |
| 20260904115520 | 57 | 35 | 5.0 | 18.0 | 0.01 | 0.01 | 0.01 | 79 | 1011.0 |
| 20260904115021 | 57 | 299 | 6.0 | 18.0 | 0.01 | 0.01 | 0.01 | 79 | 1011.0 |
| 20260904114519 | 58 | 40 | 3.0 | 13.0 | 0.01 | 0.01 | 0.01 | 78 | 1011.2 |
| 20260904114020 | 58 | 350 | 4.0 | 19.0 | 0.01 | 0.01 | 0.01 | 77 | 1011.2 |
| 20260904113519 | 58 | 348 | 5.0 | 19.0 | 0.01 | 0.01 | 0.01 | 76 | 1011.0 |
| 20260904113018 | 58 | 333 | 8.0 | 17.0 | 0.00 | 0.00 | 0.00 | 75 | 1011.6 |
| 20260904112516 | 58 | 57 | 5.0 | 12.0 | 0.00 | 0.00 | 0.00 | 75 | 1012.0 |
| 20260904112017 | 58 | 68 | 1.0 | 5.0 | 0.00 | 0.00 | 0.00 | 74 | 1012.1 |
| 20260904111521 | 58 | 65 | 1.0 | 5.0 | 0.00 | 0.00 | 0.00 | 74 | 1012.0 |
| 20260904110513 | 58 | 360 | 3.0 | 10.0 | 0.00 | 0.00 | 0.00 | 73 | 1012.4 |
| 20260904110013 | 58 | 58 | 4.0 | 15.0 | 0.00 | 0.00 | 0.00 | 73 | 1012.2 |
| 20260904105513 | 58 | 355 | 6.0 | 11.0 | 0.00 | 0.00 | 0.00 | 72 | 1012.3 |
| 20260904105012 | 58 | 62 | 1.0 | 6.0 | 0.00 | 0.00 | 0.00 | 72 | 1012.4 |
| 20260904104512 | 58 | 53 | 0.0 | 5.0 | 0.00 | 0.00 | 0.00 | 72 | 1012.5 |
| 20260904104014 | 58 | 22 | 2.0 | 5.0 | 0.00 | 0.00 | 0.00 | 72 | 1012.6 |
| 20260904103513 | 58 | 67 | 2.0 | 8.0 | 0.00 | 0.00 | 0.00 | 72 | 1012.6 |
| 20260904103010 | 58 | 54 | 1.0 | 10.0 | 0.00 | 0.00 | 0.00 | 71 | 1012.6 |
| 20260904102509 | 58 | 46 | 3.0 | 5.0 | 0.00 | 0.00 | 0.00 | 71 | 1012.7 |
| 20260904102009 | 58 | 42 | 2.0 | 5.0 | 0.00 | 0.00 | 0.00 | 71 | 1012.8 |
| 20260904101516 | 58 | 77 | 2.0 | 8.0 | 0.00 | 0.00 | 0.00 | 71 | 1012.8 |
| 20260904100510 | 58 | 14 | 3.0 | 8.0 | 0.00 | 0.00 | 0.00 | 70 | 1012.9 |
| 20260904100010 | 58 | 13 | 2.0 | 9.0 | 0.00 | 0.00 | 0.00 | 70 | 1012.9 |
| 20260904095510 | 58 | 5 | 2.0 | 9.0 | 0.00 | 0.00 | 0.00 | 70 | 1013.0 |
| 20260904095010 | 58 | 26 | 4.0 | 11.0 | 0.00 | 0.00 | 0.00 | 70 | 1012.8 |
| 20260904094508 | 58 | 17 | 2.0 | 6.0 | 0.00 | 0.00 | 0.00 | 70 | 1012.8 |
| 20260904094007 | 58 | 32 | 2.0 | 6.0 | 0.00 | 0.00 | 0.00 | 70 | 1012.9 |
| 20260904093508 | 58 | 32 | 1.0 | 13.0 | 0.00 | 0.00 | 0.00 | 70 | 1012.9 |
| 20260904093007 | 58 | 11 | 6.0 | 13.0 | 0.00 | 0.00 | 0.00 | 70 | 1012.9 |
| 20260904092508 | 58 | 355 | 4.0 | 10.0 | 0.00 | 0.00 | 0.00 | 70 | 1013.1 |
| 20260904092008 | 58 | 325 | 4.0 | 13.0 | 0.00 | 0.00 | 0.00 | 70 | 1013.1 |
| 20260904091508 | 58 | 344 | 1.0 | 5.0 | 0.00 | 0.00 | 0.00 | 69 | 1013.0 |
| 20260904090513 | 58 | 60 | 2.0 | 4.0 | 0.00 | 0.00 | 0.00 | 69 | 1013.1 |
| 20260904090011 | 58 | 172 | 0.0 | 4.0 | 0.00 | 0.00 | 0.00 | 69 | 1012.8 |
| 20260904085509 | 58 | 104 | 0.0 | 4.0 | 0.00 | 0.00 | 0.00 | 69 | 1012.9 |
| 20260904085008 | 58 | 100 | 1.0 | 4.0 | 0.00 | 0.00 | 0.00 | 69 | 1012.9 |
| 20260904084508 | 58 | 82 | 1.0 | 4.0 | 0.00 | 0.00 | 0.00 | 68 | 1012.9 |
| 20260904084009 | 58 | 329 | 1.0 | 5.0 | 0.00 | 0.00 | 0.00 | 68 | 1012.9 |
| 20260904083507 | 58 | 61 | 2.0 | 6.0 | 0.00 | 0.00 | 0.00 | 68 | 1013.1 |
| 20260904083007 | 58 | 59 | 3.0 | 8.0 | 0.00 | 0.00 | 0.00 | 67 | 1013.2 |
| 20260904082509 | 58 | 26 | 2.0 | 8.0 | 0.00 | 0.00 | 0.00 | 67 | 1013.0 |
| 20260904082006 | 58 | 344 | 1.0 | 5.0 | 0.00 | 0.00 | 0.00 | 67 | 1013.0 |
| 20260904081506 | 59 | 40 | 1.0 | 5.0 | 0.00 | 0.00 | 0.00 | 66 | 1013.0 |
| 20260904080510 | 59 | 55 | 1.0 | 8.0 | 0.00 | 0.00 | 0.00 | 66 | 1013.0 |
| 20260904080010 | 59 | 351 | 3.0 | 11.0 | 0.00 | 0.00 | 0.00 | 66 | 1013.2 |
| 20260904075510 | 59 | 342 | 5.0 | 11.0 | 0.00 | 0.00 | 0.00 | 65 | 1013.2 |
| 20260904075009 | 59 | 24 | 2.0 | 14.0 | 0.00 | 0.00 | 0.00 | 65 | 1013.3 |
| 20260904074508 | 59 | 63 | 3.0 | 14.0 | 0.00 | 0.00 | 0.00 | 65 | 1013.3 |
| 20260904074009 | 59 | 44 | 3.0 | 14.0 | 0.00 | 0.00 | 0.00 | 65 | 1013.4 |
| 20260904073509 | 59 | 11 | 2.0 | 6.0 | 0.00 | 0.00 | 0.00 | 65 | 1013.5 |
| 20260904073008 | 59 | 349 | 2.0 | 9.0 | 0.00 | 0.00 | 0.00 | 64 | 1013.6 |
| 20260904072507 | 59 | 16 | 2.0 | 9.0 | 0.00 | 0.00 | 0.00 | 64 | 1013.6 |
| 20260904072007 | 59 | 46 | 3.0 | 10.0 | 0.00 | 0.00 | 0.00 | 64 | 1013.7 |
| 20260904071506 | 59 | 11 | 4.0 | 16.0 | 0.00 | 0.00 | 0.00 | 63 | 1013.7 |
| 20260904070558 | 60 | 355 | 4.0 | 16.0 | 0.00 | 0.00 | 0.00 | 63 | 1013.8 |
| 20260904070101 | 60 | 51 | 3.0 | 11.0 | 0.00 | 0.00 | 0.00 | 62 | 1013.9 |
| 20260904065602 | 60 | 279 | 5.0 | 11.0 | 0.00 | 0.00 | 0.00 | 62 | 1014.1 |
| 20260904065057 | 60 | 355 | 5.0 | 11.0 | 0.00 | 0.00 | 0.00 | 62 | 1014.1 |
| 20260904064557 | 60 | 5 | 3.0 | 15.0 | 0.00 | 0.00 | 0.00 | 61 | 1014.1 |
| 20260904064057 | 60 | 60 | 5.0 | 15.0 | 0.00 | 0.00 | 0.00 | 61 | 1014.2 |
| 20260904063601 | 60 | 319 | 7.0 | 15.0 | 0.00 | 0.00 | 0.00 | 60 | 1014.4 |
| 20260904063112 | 61 | 325 | 5.0 | 14.0 | 0.00 | 0.00 | 0.00 | 60 | 1014.5 |
| 20260904062555 | 61 | 333 | 7.0 | 12.0 | 0.00 | 0.00 | 0.00 | 60 | 1014.5 |
| 20260904062054 | 61 | 49 | 3.0 | 12.0 | 0.00 | 0.00 | 0.00 | 60 | 1014.6 |
| 20260904061555 | 61 | 360 | 5.0 | 12.0 | 0.00 | 0.00 | 0.00 | 59 | 1014.6 |
| 20260904060555 | 61 | 33 | 7.0 | 16.0 | 0.00 | 0.00 | 0.00 | 58 | 1014.8 |
| 20260904060055 | 62 | 336 | 5.0 | 13.0 | 0.00 | 0.00 | 0.00 | 58 | 1014.9 |
| 20260904055554 | 62 | 333 | 2.0 | 12.0 | 0.00 | 0.00 | 0.00 | 58 | 1015.0 |
| 20260904055054 | 62 | 319 | 5.0 | 15.0 | 0.00 | 0.00 | 0.00 | 57 | 1015.0 |
| 20260904054554 | 63 | 326 | 5.0 | 15.0 | 0.00 | 0.00 | 0.00 | 56 | 1015.1 |
| 20260904054052 | 63 | 360 | 7.0 | 13.0 | 0.00 | 0.00 | 0.00 | 56 | 1015.2 |
| 20260904053552 | 64 | 49 | 6.0 | 14.0 | 0.00 | 0.00 | 0.00 | 55 | 1015.1 |
| 20260904053105 | 64 | 340 | 7.0 | 13.0 | 0.00 | 0.00 | 0.00 | 55 | 1015.3 |
| 20260904052552 | 64 | 312 | 6.0 | 13.0 | 0.00 | 0.00 | 0.00 | 55 | 1015.3 |
| 20260904052052 | 64 | 12 | 6.0 | 12.0 | 0.00 | 0.00 | 0.00 | 56 | 1015.2 |
| 20260904051551 | 63 | 13 | 7.0 | 13.0 | 0.00 | 0.00 | 0.00 | 56 | 1015.3 |
| 20260904050551 | 63 | 25 | 4.0 | 11.0 | 0.00 | 0.00 | 0.00 | 57 | 1015.3 |
| 20260904050052 | 62 | 5 | 4.0 | 10.0 | 0.00 | 0.00 | 0.00 | 56 | 1015.5 |
| 20260904045550 | 62 | 332 | 4.0 | 10.0 | 0.00 | 0.00 | 0.00 | 56 | 1015.5 |
| 20260904045051 | 62 | 306 | 3.0 | 12.0 | 0.00 | 0.00 | 0.00 | 56 | 1015.5 |
| 20260904044554 | 62 | 285 | 7.0 | 12.0 | 0.00 | 0.00 | 0.00 | 55 | 1015.5 |
| 20260904044051 | 63 | 300 | 6.0 | 14.0 | 0.00 | 0.00 | 0.00 | 55 | 1015.5 |
| 20260904043550 | 63 | 346 | 7.0 | 14.0 | 0.00 | 0.00 | 0.00 | 54 | 1015.5 |
| 20260904043058 | 63 | 5 | 4.0 | 13.0 | 0.00 | 0.00 | 0.00 | 53 | 1015.6 |
| 20260904042550 | 64 | 323 | 7.0 | 13.0 | 0.00 | 0.00 | 0.00 | 53 | 1015.6 |
| 20260904042051 | 64 | 347 | 4.0 | 12.0 | 0.00 | 0.00 | 0.00 | 52 | 1015.5 |
| 20260904041549 | 64 | 333 | 4.0 | 15.0 | 0.00 | 0.00 | 0.00 | 51 | 1015.5 |
| 20260904040529 | 65 | 329 | 9.0 | 15.0 | 0.00 | 0.00 | 0.00 | 50 | 1015.8 |
| 20260904040027 | 65 | 360 | 4.0 | 13.0 | 0.00 | 0.00 | 0.00 | 50 | 1015.6 |
| 20260904035530 | 65 | 52 | 6.0 | 13.0 | 0.00 | 0.00 | 0.00 | 50 | 1015.6 |
| 20260904035025 | 65 | 5 | 4.0 | 13.0 | 0.00 | 0.00 | 0.00 | 50 | 1015.5 |
| 20260904034526 | 64 | 336 | 5.0 | 13.0 | 0.00 | 0.00 | 0.00 | 51 | 1015.4 |
| 20260904034024 | 64 | 360 | 4.0 | 12.0 | 0.00 | 0.00 | 0.00 | 53 | 1015.6 |
| 20260904033524 | 63 | 11 | 5.0 | 14.0 | 0.00 | 0.00 | 0.00 | 53 | 1015.7 |
| 20260904033028 | 63 | 266 | 3.0 | 14.0 | 0.00 | 0.00 | 0.00 | 53 | 1015.8 |
| 20260904032517 | 63 | 288 | 8.0 | 18.0 | 0.00 | 0.00 | 0.00 | 53 | 1016.1 |
| 20260904032016 | 62 | 278 | 8.0 | 16.0 | 0.00 | 0.00 | 0.00 | 53 | 1016.3 |
| 20260904031516 | 62 | 291 | 6.0 | 14.0 | 0.00 | 0.00 | 0.00 | 54 | 1016.4 |
| 20260904031015 | 62 | 9 | 6.0 | 14.0 | 0.00 | 0.00 | 0.00 | 53 | 1016.5 |
| 20260904030515 | 62 | 295 | 7.0 | 13.0 | 0.00 | 0.00 | 0.00 | 54 | 1016.5 |
| 20260904030014 | 61 | 269 | 8.0 | 15.0 | 0.00 | 0.03 | 0.00 | 53 | 1016.5 |
| 20260904025514 | 62 | 281 | 8.0 | 15.0 | 0.00 | 0.03 | 0.00 | 52 | 1016.7 |
| 20260904025014 | 62 | 284 | 7.0 | 15.0 | 0.00 | 0.03 | 0.00 | 52 | 1016.8 |
| 20260904024512 | 62 | 297 | 7.0 | 16.0 | 0.00 | 0.03 | 0.00 | 51 | 1016.8 |
| 20260904024112 | 63 | 248 | 11.0 | 19.0 | 0.00 | 0.03 | 0.00 | 50 | 1017.0 |
| 20260904023513 | 63 | 301 | 8.0 | 14.0 | 0.00 | 0.03 | 0.00 | 51 | 1016.9 |
| 20260904023013 | 62 | 288 | 6.0 | 17.0 | 0.00 | 0.03 | 0.00 | 52 | 1016.9 |
| 20260904022511 | 62 | 275 | 5.0 | 12.0 | 0.00 | 0.03 | 0.00 | 53 | 1017.0 |
| 20260904022011 | 61 | 301 | 4.0 | 13.0 | 0.00 | 0.03 | 0.00 | 54 | 1017.1 |
| 20260904021509 | 61 | 292 | 4.0 | 15.0 | 0.00 | 0.03 | 0.00 | 55 | 1017.1 |
| 20260904021009 | 61 | 300 | 8.0 | 16.0 | 0.00 | 0.03 | 0.00 | 52 | 1017.3 |
| 20260904020509 | 61 | 284 | 9.0 | 16.0 | 0.00 | 0.03 | 0.00 | 52 | 1017.4 |
| 20260904020006 | 61 | 284 | 7.0 | 15.0 | 0.00 | 0.03 | 0.00 | 51 | 1017.5 |
| 20260904015509 | 61 | 317 | 8.0 | 15.0 | 0.00 | 0.03 | 0.00 | 51 | 1017.5 |
| 20260904015006 | 61 | 298 | 7.0 | 14.0 | 0.00 | 0.03 | 0.00 | 51 | 1017.6 |
| 20260904014504 | 61 | 300 | 7.0 | 14.0 | 0.00 | 0.03 | 0.00 | 52 | 1017.8 |
| 20260904014103 | 60 | 351 | 6.0 | 13.0 | 0.00 | 0.03 | 0.00 | 53 | 1017.9 |
| 20260904013600 | 60 | 275 | 6.0 | 13.0 | 0.00 | 0.03 | 0.00 | 52 | 1017.9 |
| 20260904013121 | 60 | 294 | 4.0 | 12.0 | 0.00 | 0.03 | 0.00 | 54 | 1018.1 |
| 20260904012558 | 60 | 294 | 6.0 | 12.0 | 0.00 | 0.03 | 0.00 | 52 | 1018.2 |
| 20260904012057 | 60 | 295 | 6.0 | 11.0 | 0.00 | 0.03 | 0.00 | 53 | 1018.2 |
| 20260904011635 | 59 | 336 | 3.0 | 10.0 | 0.00 | 0.03 | 0.00 | 53 | 1018.2 |
| 20260904011054 | 59 | 269 | 3.0 | 11.0 | 0.00 | 0.03 | 0.00 | 53 | 1018.0 |
| 20260904010553 | 58 | 250 | 1.0 | 11.0 | 0.00 | 0.03 | 0.00 | 54 | 1018.2 |
| 20260904010052 | 58 | 290 | 4.0 | 11.0 | 0.00 | 0.03 | 0.00 | 53 | 1018.2 |
| 20260904005550 | 58 | 304 | 4.0 | 9.0 | 0.00 | 0.03 | 0.00 | 55 | 1018.2 |
| 20260904005049 | 58 | 269 | 3.0 | 9.0 | 0.00 | 0.03 | 0.00 | 55 | 1018.3 |
| 20260904004548 | 57 | 284 | 4.0 | 9.0 | 0.00 | 0.03 | 0.00 | 54 | 1018.6 |
| 20260904004047 | 57 | 323 | 4.0 | 12.0 | 0.00 | 0.03 | 0.00 | 54 | 1018.9 |
| 20260904003553 | 57 | 331 | 5.0 | 13.0 | 0.00 | 0.03 | 0.00 | 54 | 1018.9 |
| 20260904003054 | 57 | 323 | 7.0 | 13.0 | 0.00 | 0.03 | 0.00 | 55 | 1019.0 |
| 20260904002553 | 57 | 286 | 3.0 | 11.0 | 0.00 | 0.03 | 0.00 | 56 | 1019.2 |
| 20260904002052 | 56 | 344 | 4.0 | 10.0 | 0.00 | 0.03 | 0.00 | 55 | 1019.2 |
| 20260904001551 | 56 | 350 | 3.0 | 11.0 | 0.00 | 0.03 | 0.00 | 55 | 1019.4 |
| 20260904001050 | 56 | 296 | 6.0 | 11.0 | 0.00 | 0.03 | 0.00 | 55 | 1019.6 |
| 20260904000549 | 56 | 282 | 4.0 | 10.0 | 0.00 | 0.03 | 0.00 | 56 | 1019.5 |
| 20260904000049 | 56 | 333 | 4.0 | 9.0 | 0.00 | 0.03 | 0.00 | 58 | 1019.5 |
| 20260903235549 | 56 | 330 | 5.0 | 9.0 | 0.00 | 0.03 | 0.00 | 58 | 1019.5 |
| 20260903235047 | 56 | 27 | 3.0 | 5.0 | 0.00 | 0.03 | 0.00 | 60 | 1019.4 |
| 20260903234546 | 56 | 342 | 2.0 | 8.0 | 0.00 | 0.03 | 0.00 | 60 | 1019.6 |
| 20260903234046 | 55 | 345 | 1.0 | 11.0 | 0.00 | 0.03 | 0.00 | 62 | 1019.5 |
| 20260903233543 | 55 | 325 | 2.0 | 11.0 | 0.00 | 0.03 | 0.00 | 62 | 1019.5 |
| 20260903233041 | 54 | 329 | 3.0 | 11.0 | 0.00 | 0.03 | 0.00 | 61 | 1019.5 |
| 20260903232540 | 54 | 257 | 3.0 | 14.0 | 0.00 | 0.03 | 0.00 | 62 | 1019.6 |
| 20260903232039 | 54 | 331 | 6.0 | 14.0 | 0.00 | 0.03 | 0.00 | 62 | 1019.7 |
| 20260903231545 | 53 | 301 | 8.0 | 16.0 | 0.00 | 0.03 | 0.00 | 63 | 1019.7 |
| 20260903231035 | 53 | 332 | 8.0 | 16.0 | 0.00 | 0.03 | 0.00 | 65 | 1019.5 |
| 20260903230534 | 52 | 313 | 4.0 | 15.0 | 0.00 | 0.03 | 0.00 | 69 | 1019.5 |
| 20260903230035 | 51 | 324 | 5.0 | 15.0 | 0.00 | 0.03 | 0.00 | 74 | 1020.0 |
| 20260903225535 | 50 | 292 | 5.0 | 11.0 | 0.00 | 0.03 | 0.00 | 80 | 1020.1 |
| 20260903225031 | 49 | 284 | 4.0 | 8.0 | 0.00 | 0.03 | 0.00 | 86 | 1020.0 |
| 20260903224537 | 48 | 20 | 0.0 | 3.0 | 0.00 | 0.03 | 0.00 | 88 | 1019.9 |
| 20260903224027 | 47 | 65 | 1.0 | 3.0 | 0.00 | 0.03 | 0.00 | 90 | 1019.9 |
| 20260903223526 | 47 | 65 | 1.0 | 3.0 | 0.00 | 0.03 | 0.00 | 90 | 1019.9 |
| 20260903223021 | 46 | 69 | 1.0 | 3.0 | 0.00 | 0.03 | 0.00 | 91 | 1020.0 |
| 20260903222521 | 45 | 67 | 0.0 | 3.0 | 0.00 | 0.03 | 0.00 | 91 | 1020.2 |
| 20260903222019 | 45 | 12 | 1.0 | 3.0 | 0.00 | 0.03 | 0.00 | 92 | 1020.2 |
| 20260903221517 | 44 | 321 | 0.0 | 3.0 | 0.00 | 0.03 | 0.00 | 91 | 1020.3 |
| 20260903221019 | 43 | 320 | 0.0 | 1.0 | 0.00 | 0.03 | 0.00 | 91 | 1020.2 |
| 20260903220514 | 42 | 320 | 0.0 | 2.0 | 0.00 | 0.03 | 0.00 | 91 | 1020.0 |
| 20260903220013 | 42 | 348 | 0.0 | 3.0 | 0.00 | 0.03 | 0.00 | 91 | 1020.0 |
| 20260903215512 | 41 | 341 | 1.0 | 3.0 | 0.00 | 0.03 | 0.00 | 91 | 1019.8 |
| 20260903215011 | 40 | 324 | 0.0 | 0.0 | 0.00 | 0.03 | 0.00 | 90 | 1019.7 |
| 20260903214508 | 39 | 324 | 0.0 | 1.0 | 0.00 | 0.03 | 0.00 | 89 | 1019.6 |
| 20260903214008 | 39 | 324 | 0.0 | 1.0 | 0.00 | 0.03 | 0.00 | 89 | 1019.5 |
| 20260903213512 | 39 | 324 | 0.0 | 1.0 | 0.00 | 0.03 | 0.00 | 89 | 1019.5 |
| 20260903213007 | 38 | 324 | 0.0 | 2.0 | 0.00 | 0.03 | 0.00 | 88 | 1019.5 |
| 20260903212506 | 38 | 324 | 0.0 | 2.0 | 0.00 | 0.03 | 0.00 | 88 | 1019.5 |
| 20260903212004 | 37 | 324 | 0.0 | 2.0 | 0.00 | 0.03 | 0.00 | 88 | 1019.4 |
| 20260903211503 | 37 | 324 | 0.0 | 2.0 | 0.00 | 0.03 | 0.00 | 87 | 1019.4 |
| 20260903211001 | 37 | 324 | 0.0 | 2.0 | 0.00 | 0.03 | 0.00 | 86 | 1019.4 |
| 20260903210600 | 37 | 324 | 0.0 | 2.0 | 0.00 | 0.03 | 0.00 | 86 | 1019.4 |
| 20260903210139 | 36 | 229 | 0.0 | 1.0 | 0.00 | 0.03 | 0.00 | 86 | 1019.3 |
| 20260903205602 | 36 | 229 | 0.0 | 1.0 | 0.00 | 0.03 | 0.00 | 86 | 1019.3 |
| 20260903205059 | 36 | 229 | 0.0 | 1.0 | 0.00 | 0.03 | 0.00 | 85 | 1019.3 |
| 20260903204604 | 36 | 229 | 0.0 | 1.0 | 0.00 | 0.03 | 0.00 | 85 | 1019.2 |
| 20260903204056 | 36 | 229 | 0.0 | 1.0 | 0.00 | 0.03 | 0.00 | 84 | 1019.1 |
| 20260903203056 | 36 | 229 | 0.0 | 1.0 | 0.00 | 0.03 | 0.00 | 84 | 1019.1 |
| 20260903202554 | 36 | 229 | 0.0 | 1.0 | 0.00 | 0.03 | 0.00 | 84 | 1019.1 |
| 20260903202054 | 37 | 229 | 0.0 | 1.0 | 0.00 | 0.03 | 0.00 | 84 | 1019.1 |
| 20260903201553 | 37 | 229 | 0.0 | 0.0 | 0.00 | 0.03 | 0.00 | 84 | 1019.1 |
| 20260903201053 | 37 | 229 | 0.0 | 0.0 | 0.00 | 0.03 | 0.00 | 84 | 1019.2 |
| 20260903200553 | 37 | 229 | 0.0 | 0.0 | 0.00 | 0.03 | 0.00 | 84 | 1019.3 |
| 20260903200105 | 37 | 229 | 0.0 | 0.0 | 0.00 | 0.03 | 0.00 | 84 | 1019.2 |
| 20260903195553 | 37 | 229 | 0.0 | 0.0 | 0.00 | 0.03 | 0.00 | 84 | 1019.2 |
| 20260903195052 | 37 | 229 | 0.0 | 0.0 | 0.00 | 0.03 | 0.00 | 84 | 1019.1 |
| 20260903194551 | 37 | 229 | 0.0 | 1.0 | 0.00 | 0.03 | 0.00 | 84 | 1019.0 |
| 20260903194049 | 37 | 229 | 0.0 | 1.0 | 0.00 | 0.03 | 0.00 | 84 | 1019.2 |
| 20260903193053 | 37 | 229 | 0.0 | 1.0 | 0.00 | 0.03 | 0.00 | 84 | 1019.1 |
| 20260903192550 | 37 | 229 | 0.0 | 1.0 | 0.00 | 0.03 | 0.00 | 84 | 1019.0 |
| 20260903192050 | 37 | 229 | 0.0 | 1.0 | 0.00 | 0.03 | 0.00 | 84 | 1018.9 |
| 20260903191600 | 38 | 229 | 0.0 | 1.0 | 0.00 | 0.03 | 0.00 | 84 | 1018.9 |
| 20260903191050 | 38 | 229 | 0.0 | 0.0 | 0.00 | 0.03 | 0.00 | 84 | 1018.8 |
| 20260903190548 | 38 | 229 | 0.0 | 1.0 | 0.00 | 0.03 | 0.00 | 84 | 1018.8 |
| 20260903190051 | 38 | 229 | 0.0 | 1.0 | 0.00 | 0.03 | 0.00 | 83 | 1018.8 |